TimePDT,TemperatureF,Dew PointF,Humidity,Sea Level PressureIn,VisibilityMPH,Wind Direction,Wind SpeedMPH,Gust SpeedMPH,PrecipitationIn,Events,Conditions,WindDirDegrees,DateUTC
12:58 AM,48.6,46.0,91,30.13,10.0,SSE,2.3,-,N/A,,Clear,150,2012-09-17 07:58:00
1:58 AM,48.2,46.2,93,30.14,10.0,South,2.3,-,N/A,,Clear,170,2012-09-17 08:58:00
2:58 AM,47.1,46.0,96,30.13,10.0,Calm,Calm,-,N/A,,Clear,0,2012-09-17 09:58:00
3:58 AM,45.9,44.8,96,30.13,10.0,South,2.3,-,N/A,,Clear,170,2012-09-17 10:58:00
4:28 AM,46.4,44.6,93,30.12,1.0,Calm,Calm,-,N/A,,Clear,0,2012-09-17 11:28:00
4:33 AM,46.4,44.6,93,30.11,0.8,ESE,1.2,-,N/A,,Clear,110,2012-09-17 11:33:00
4:38 AM,44.6,42.8,93,30.12,1.0,SSE,2.3,-,N/A,,Clear,160,2012-09-17 11:38:00
4:48 AM,44.6,42.8,93,30.11,0.8,SE,2.3,-,N/A,,Clear,140,2012-09-17 11:48:00
4:53 AM,44.6,42.8,93,30.11,0.8,Calm,Calm,-,N/A,,Clear,40,2012-09-17 11:53:00
4:58 AM,44.6,44.6,100,30.12,5.0,SSW,1.2,-,N/A,,Clear,210,2012-09-17 11:58:00
5:48 AM,42.8,41.0,93,30.11,2.0,South,2.3,-,N/A,,Clear,180,2012-09-17 12:48:00
5:53 AM,44.6,42.8,93,30.11,1.5,South,3.5,-,N/A,,Clear,170,2012-09-17 12:53:00
5:58 AM,43.9,43.0,97,30.12,1.5,South,3.5,-,N/A,,Clear,170,2012-09-17 12:58:00
6:03 AM,44.6,42.8,93,30.11,2.5,SSE,2.3,-,N/A,,Clear,150,2012-09-17 13:03:00
6:08 AM,44.6,42.8,93,30.11,10.0,Calm,Calm,-,N/A,,Clear,0,2012-09-17 13:08:00
6:48 AM,42.8,42.8,100,30.11,2.0,Calm,Calm,-,N/A,,Clear,330,2012-09-17 13:48:00
6:53 AM,42.8,42.8,100,30.11,5.0,South,2.3,-,N/A,,Clear,180,2012-09-17 13:53:00
6:58 AM,43.3,42.3,96,30.12,5.0,South,2.3,-,N/A,,Clear,190,2012-09-17 13:58:00
7:08 AM,42.8,42.8,100,30.11,1.5,South,2.3,-,N/A,,Clear,180,2012-09-17 14:08:00
7:13 AM,42.8,41.0,93,30.12,1.0,South,2.3,-,N/A,,Clear,190,2012-09-17 14:13:00
7:18 AM,42.8,42.8,100,30.12,2.5,South,2.3,-,N/A,,Clear,180,2012-09-17 14:18:00
7:23 AM,42.8,42.8,100,30.12,9.0,South,2.3,-,N/A,,Clear,170,2012-09-17 14:23:00
7:58 AM,46.4,45.1,95,30.14,10.0,Calm,Calm,-,N/A,,Clear,0,2012-09-17 14:58:00
8:58 AM,54.1,49.5,84,30.14,10.0,Calm,Calm,-,N/A,,Clear,10,2012-09-17 15:58:00
9:58 AM,62.6,52.2,69,30.14,10.0,NE,3.5,-,N/A,,Clear,40,2012-09-17 16:58:00
10:58 AM,67.6,52.3,58,30.13,10.0,ENE,5.8,-,N/A,,Clear,70,2012-09-17 17:58:00
11:58 AM,71.1,54.5,56,30.12,10.0,North,8.1,-,N/A,,Clear,360,2012-09-17 18:58:00
12:58 PM,73.8,53.4,49,30.10,10.0,NNE,5.8,-,N/A,,Clear,20,2012-09-17 19:58:00
1:58 PM,76.1,53.2,45,30.08,10.0,North,6.9,-,N/A,,Clear,10,2012-09-17 20:58:00
2:58 PM,77.2,51.6,41,30.06,10.0,NE,8.1,-,N/A,,Clear,40,2012-09-17 21:58:00
3:58 PM,78.4,52.7,41,30.04,10.0,North,6.9,-,N/A,,Clear,10,2012-09-17 22:58:00
4:58 PM,78.4,52.0,40,30.04,10.0,North,5.8,-,N/A,,Clear,10,2012-09-17 23:58:00
5:58 PM,77.5,51.8,41,30.02,10.0,NNE,3.5,-,N/A,,Clear,20,2012-09-18 00:58:00
6:58 PM,73.0,50.5,45,30.02,10.0,NNE,4.6,-,N/A,,Clear,30,2012-09-18 01:58:00
7:13 PM,71.6,50.0,46,30.01,10.0,NE,3.5,-,N/A,,Light Drizzle,50,2012-09-18 02:13:00
7:22 PM,71.6,50.0,46,30.01,10.0,NE,3.5,-,N/A,,Clear,50,2012-09-18 02:22:00
7:58 PM,64.8,52.2,64,30.02,10.0,SSE,1.2,-,0.00,,Clear,160,2012-09-18 02:58:00
8:58 PM,60.8,51.4,71,30.04,10.0,Calm,Calm,-,N/A,,Clear,0,2012-09-18 03:58:00
9:58 PM,57.7,50.9,78,30.03,10.0,Calm,Calm,-,N/A,,Clear,0,2012-09-18 04:58:00
10:58 PM,56.1,50.7,82,30.03,10.0,South,2.3,-,N/A,,Clear,180,2012-09-18 05:58:00
11:58 PM,53.6,49.3,85,30.03,10.0,North,-9999.0,-,N/A,,Clear,0,2012-09-18 06:58:00